Porto Seguro, Brazil
Current Conditions -  °F | °C
As of 5:00 AM on Sunday 23 Nov 2014 (Local Time) from SBPS Reporting Station
Rain Showers Rain Showers  
Wind Chill: 77°   Ceiling: Unl
Heat Index: 78°   Visibility: 5mi
Dew Point: 72°   Wind: 12mph
Humidity: 83%   Direction: 80°E
Pressure: 29.91"   Gusts: NA
Location:  16.43°S, 39.08°W
Report Text: SBPS 230800Z 08010KT 8000 VCSH SCT015 SCT020 25/22 Q1013
Loading
Personal Weather Stations






























Interactive Weather Map New forecast layout! Learn more

10-Day Weather Forecast

Advertisements
Track Severe Weather on mobile